sensor_id;sensor_type;location;lat;lon;timestamp;P1;durP1;ratioP1;P2;durP2;ratioP2
18322;SDS011;9287;49.456;11.064;2023-03-01T00:01:39;16.63;;;12.63;;
18322;SDS011;9287;49.456;11.064;2023-03-01T00:04:07;17.53;;;13.90;;
18322;SDS011;9287;49.456;11.064;2023-03-01T00:06:35;18.50;;;13.77;;
18322;SDS011;9287;49.456;11.064;2023-03-01T00:09:03;16.77;;;13.23;;
18322;SDS011;9287;49.456;11.064;2023-03-01T00:11:31;18.53;;;13.70;;
18322;SDS011;9287;49.456;11.064;2023-03-01T00:14:00;21.30;;;14.50;;
18322;SDS011;9287;49.456;11.064;2023-03-01T00:16:31;22.93;;;15.37;;
18322;SDS011;9287;49.456;11.064;2023-03-01T00:19:01;19.27;;;13.57;;
18322;SDS011;9287;49.456;11.064;2023-03-01T00:21:29;18.53;;;13.73;;
18322;SDS011;9287;49.456;11.064;2023-03-01T00:23:57;16.47;;;13.03;;
18322;SDS011;9287;49.456;11.064;2023-03-01T00:26:25;23.20;;;14.87;;
18322;SDS011;9287;49.456;11.064;2023-03-01T00:28:54;19.03;;;14.33;;
18322;SDS011;9287;49.456;11.064;2023-03-01T00:31:24;20.23;;;14.17;;
18322;SDS011;9287;49.456;11.064;2023-03-01T00:33:53;20.27;;;13.97;;
18322;SDS011;9287;49.456;11.064;2023-03-01T00:36:26;20.87;;;14.10;;
18322;SDS011;9287;49.456;11.064;2023-03-01T00:38:55;19.37;;;14.87;;
18322;SDS011;9287;49.456;11.064;2023-03-01T00:41:24;20.10;;;14.27;;
18322;SDS011;9287;49.456;11.064;2023-03-01T00:43:52;19.27;;;13.80;;
18322;SDS011;9287;49.456;11.064;2023-03-01T00:46:21;20.40;;;15.33;;
18322;SDS011;9287;49.456;11.064;2023-03-01T00:48:50;19.67;;;14.80;;
18322;SDS011;9287;49.456;11.064;2023-03-01T00:51:18;20.50;;;14.47;;
18322;SDS011;9287;49.456;11.064;2023-03-01T00:53:51;17.90;;;13.57;;
18322;SDS011;9287;49.456;11.064;2023-03-01T00:56:21;20.67;;;13.53;;
18322;SDS011;9287;49.456;11.064;2023-03-01T00:58:48;18.37;;;13.97;;
18322;SDS011;9287;49.456;11.064;2023-03-01T01:01:17;20.40;;;15.00;;
18322;SDS011;9287;49.456;11.064;2023-03-01T01:03:48;20.93;;;15.90;;
18322;SDS011;9287;49.456;11.064;2023-03-01T01:06:17;18.90;;;14.63;;
18322;SDS011;9287;49.456;11.064;2023-03-01T01:08:46;20.53;;;15.00;;
18322;SDS011;9287;49.456;11.064;2023-03-01T01:11:15;21.33;;;15.27;;
18322;SDS011;9287;49.456;11.064;2023-03-01T01:13:44;25.17;;;15.27;;
18322;SDS011;9287;49.456;11.064;2023-03-01T01:16:12;20.20;;;14.97;;
18322;SDS011;9287;49.456;11.064;2023-03-01T01:18:41;21.13;;;15.07;;
18322;SDS011;9287;49.456;11.064;2023-03-01T01:21:10;19.73;;;14.47;;
18322;SDS011;9287;49.456;11.064;2023-03-01T01:23:39;19.50;;;14.97;;
18322;SDS011;9287;49.456;11.064;2023-03-01T01:26:09;22.90;;;15.73;;
18322;SDS011;9287;49.456;11.064;2023-03-01T01:28:39;19.87;;;15.67;;
18322;SDS011;9287;49.456;11.064;2023-03-01T01:31:07;20.63;;;15.50;;
18322;SDS011;9287;49.456;11.064;2023-03-01T01:33:35;21.57;;;14.80;;
18322;SDS011;9287;49.456;11.064;2023-03-01T01:36:04;22.17;;;14.30;;
18322;SDS011;9287;49.456;11.064;2023-03-01T01:38:33;21.13;;;14.60;;
18322;SDS011;9287;49.456;11.064;2023-03-01T01:41:01;21.57;;;15.20;;
18322;SDS011;9287;49.456;11.064;2023-03-01T01:43:30;22.17;;;15.57;;
18322;SDS011;9287;49.456;11.064;2023-03-01T01:46:03;22.03;;;16.13;;
18322;SDS011;9287;49.456;11.064;2023-03-01T01:48:34;23.53;;;16.43;;
18322;SDS011;9287;49.456;11.064;2023-03-01T01:51:09;21.50;;;15.20;;
18322;SDS011;9287;49.456;11.064;2023-03-01T01:53:40;21.03;;;15.77;;
18322;SDS011;9287;49.456;11.064;2023-03-01T01:56:13;20.97;;;15.47;;
18322;SDS011;9287;49.456;11.064;2023-03-01T01:58:42;23.57;;;16.47;;
18322;SDS011;9287;49.456;11.064;2023-03-01T02:01:13;19.67;;;14.70;;
18322;SDS011;9287;49.456;11.064;2023-03-01T02:03:41;22.33;;;15.43;;
18322;SDS011;9287;49.456;11.064;2023-03-01T02:06:12;19.83;;;14.67;;
18322;SDS011;9287;49.456;11.064;2023-03-01T02:08:46;22.73;;;16.33;;
18322;SDS011;9287;49.456;11.064;2023-03-01T02:11:15;22.47;;;16.17;;
18322;SDS011;9287;49.456;11.064;2023-03-01T02:13:46;22.87;;;15.53;;
18322;SDS011;9287;49.456;11.064;2023-03-01T02:16:16;23.30;;;16.03;;
18322;SDS011;9287;49.456;11.064;2023-03-01T02:18:45;23.47;;;16.63;;
18322;SDS011;9287;49.456;11.064;2023-03-01T02:24:06;21.83;;;16.13;;
18322;SDS011;9287;49.456;11.064;2023-03-01T02:26:47;24.47;;;16.37;;
18322;SDS011;9287;49.456;11.064;2023-03-01T02:29:20;23.13;;;16.37;;
18322;SDS011;9287;49.456;11.064;2023-03-01T02:31:48;21.63;;;16.20;;
18322;SDS011;9287;49.456;11.064;2023-03-01T02:34:19;23.80;;;17.27;;
18322;SDS011;9287;49.456;11.064;2023-03-01T02:36:52;24.57;;;17.50;;
18322;SDS011;9287;49.456;11.064;2023-03-01T02:39:25;20.83;;;15.87;;
18322;SDS011;9287;49.456;11.064;2023-03-01T02:41:56;21.47;;;15.73;;
18322;SDS011;9287;49.456;11.064;2023-03-01T02:44:27;22.43;;;16.17;;
18322;SDS011;9287;49.456;11.064;2023-03-01T02:46:56;21.10;;;16.33;;
18322;SDS011;9287;49.456;11.064;2023-03-01T02:49:28;24.23;;;16.37;;
18322;SDS011;9287;49.456;11.064;2023-03-01T02:52:10;20.77;;;15.60;;
18322;SDS011;9287;49.456;11.064;2023-03-01T02:54:56;23.13;;;15.47;;
18322;SDS011;9287;49.456;11.064;2023-03-01T02:57:28;20.47;;;15.53;;
18322;SDS011;9287;49.456;11.064;2023-03-01T03:00:01;22.77;;;17.63;;
18322;SDS011;9287;49.456;11.064;2023-03-01T03:02:33;21.90;;;16.30;;
18322;SDS011;9287;49.456;11.064;2023-03-01T03:05:06;25.77;;;16.40;;
18322;SDS011;9287;49.456;11.064;2023-03-01T03:07:40;21.00;;;16.57;;
18322;SDS011;9287;49.456;11.064;2023-03-01T03:10:11;26.10;;;16.53;;
18322;SDS011;9287;49.456;11.064;2023-03-01T03:12:40;23.77;;;15.90;;
18322;SDS011;9287;49.456;11.064;2023-03-01T03:15:10;22.27;;;16.70;;
18322;SDS011;9287;49.456;11.064;2023-03-01T03:17:39;23.57;;;16.03;;
18322;SDS011;9287;49.456;11.064;2023-03-01T03:20:12;22.80;;;16.37;;
18322;SDS011;9287;49.456;11.064;2023-03-01T03:22:45;20.07;;;14.77;;
18322;SDS011;9287;49.456;11.064;2023-03-01T03:25:14;21.23;;;15.13;;
18322;SDS011;9287;49.456;11.064;2023-03-01T03:27:43;19.07;;;14.37;;
18322;SDS011;9287;49.456;11.064;2023-03-01T03:30:14;21.70;;;15.40;;
18322;SDS011;9287;49.456;11.064;2023-03-01T03:32:44;19.77;;;15.23;;
18322;SDS011;9287;49.456;11.064;2023-03-01T03:35:19;22.57;;;16.80;;
18322;SDS011;9287;49.456;11.064;2023-03-01T03:37:48;22.63;;;15.77;;
18322;SDS011;9287;49.456;11.064;2023-03-01T03:40:33;22.33;;;15.93;;
18322;SDS011;9287;49.456;11.064;2023-03-01T03:43:02;20.80;;;15.50;;
18322;SDS011;9287;49.456;11.064;2023-03-01T03:45:32;21.70;;;16.07;;
18322;SDS011;9287;49.456;11.064;2023-03-01T03:48:01;22.60;;;16.77;;
18322;SDS011;9287;49.456;11.064;2023-03-01T03:50:30;19.23;;;14.73;;
18322;SDS011;9287;49.456;11.064;2023-03-01T03:52:59;25.33;;;16.37;;
18322;SDS011;9287;49.456;11.064;2023-03-01T03:55:27;23.10;;;15.87;;
18322;SDS011;9287;49.456;11.064;2023-03-01T03:57:57;20.73;;;14.63;;
18322;SDS011;9287;49.456;11.064;2023-03-01T04:00:28;20.70;;;14.83;;
18322;SDS011;9287;49.456;11.064;2023-03-01T04:02:57;19.93;;;13.37;;
18322;SDS011;9287;49.456;11.064;2023-03-01T04:05:25;21.50;;;14.67;;
18322;SDS011;9287;49.456;11.064;2023-03-01T04:07:53;18.67;;;14.87;;
18322;SDS011;9287;49.456;11.064;2023-03-01T04:10:28;19.13;;;14.97;;
18322;SDS011;9287;49.456;11.064;2023-03-01T04:12:58;20.23;;;15.80;;
18322;SDS011;9287;49.456;11.064;2023-03-01T04:15:26;19.03;;;14.60;;
18322;SDS011;9287;49.456;11.064;2023-03-01T04:17:54;18.93;;;14.30;;
18322;SDS011;9287;49.456;11.064;2023-03-01T04:20:24;21.03;;;15.40;;
18322;SDS011;9287;49.456;11.064;2023-03-01T04:22:57;22.20;;;15.13;;
18322;SDS011;9287;49.456;11.064;2023-03-01T04:25:25;19.93;;;15.60;;
18322;SDS011;9287;49.456;11.064;2023-03-01T04:27:53;20.97;;;16.43;;
18322;SDS011;9287;49.456;11.064;2023-03-01T04:30:21;21.73;;;15.43;;
18322;SDS011;9287;49.456;11.064;2023-03-01T04:32:51;19.33;;;14.87;;
18322;SDS011;9287;49.456;11.064;2023-03-01T04:35:19;20.47;;;14.60;;
18322;SDS011;9287;49.456;11.064;2023-03-01T04:37:48;18.10;;;15.20;;
18322;SDS011;9287;49.456;11.064;2023-03-01T04:40:17;20.50;;;14.73;;
18322;SDS011;9287;49.456;11.064;2023-03-01T04:42:44;20.77;;;14.60;;
18322;SDS011;9287;49.456;11.064;2023-03-01T04:45:13;21.00;;;15.40;;
18322;SDS011;9287;49.456;11.064;2023-03-01T04:47:41;19.67;;;14.73;;
18322;SDS011;9287;49.456;11.064;2023-03-01T04:50:11;17.80;;;14.63;;
18322;SDS011;9287;49.456;11.064;2023-03-01T04:52:40;20.27;;;14.83;;
18322;SDS011;9287;49.456;11.064;2023-03-01T04:55:09;22.83;;;16.27;;
18322;SDS011;9287;49.456;11.064;2023-03-01T04:57:37;21.10;;;15.50;;
18322;SDS011;9287;49.456;11.064;2023-03-01T05:00:07;20.17;;;15.13;;
18322;SDS011;9287;49.456;11.064;2023-03-01T05:02:49;19.50;;;15.27;;
18322;SDS011;9287;49.456;11.064;2023-03-01T05:05:21;21.77;;;15.63;;
18322;SDS011;9287;49.456;11.064;2023-03-01T05:07:55;19.77;;;15.20;;
18322;SDS011;9287;49.456;11.064;2023-03-01T05:10:26;20.17;;;15.57;;
18322;SDS011;9287;49.456;11.064;2023-03-01T05:12:56;22.63;;;15.80;;
18322;SDS011;9287;49.456;11.064;2023-03-01T05:15:25;22.97;;;15.90;;
18322;SDS011;9287;49.456;11.064;2023-03-01T05:17:54;19.53;;;15.20;;
18322;SDS011;9287;49.456;11.064;2023-03-01T05:20:25;20.63;;;15.37;;
18322;SDS011;9287;49.456;11.064;2023-03-01T05:22:55;20.20;;;15.53;;
18322;SDS011;9287;49.456;11.064;2023-03-01T05:25:26;21.83;;;15.37;;
18322;SDS011;9287;49.456;11.064;2023-03-01T05:27:59;20.70;;;14.93;;
18322;SDS011;9287;49.456;11.064;2023-03-01T05:30:30;20.27;;;15.83;;
18322;SDS011;9287;49.456;11.064;2023-03-01T05:32:59;21.90;;;15.73;;
18322;SDS011;9287;49.456;11.064;2023-03-01T05:35:27;20.30;;;15.30;;
18322;SDS011;9287;49.456;11.064;2023-03-01T05:37:55;23.63;;;15.47;;
18322;SDS011;9287;49.456;11.064;2023-03-01T05:40:23;23.43;;;16.07;;
18322;SDS011;9287;49.456;11.064;2023-03-01T05:42:53;22.63;;;15.60;;
18322;SDS011;9287;49.456;11.064;2023-03-01T05:45:23;19.03;;;15.67;;
18322;SDS011;9287;49.456;11.064;2023-03-01T05:47:52;23.30;;;16.63;;
18322;SDS011;9287;49.456;11.064;2023-03-01T05:50:22;21.00;;;16.40;;
18322;SDS011;9287;49.456;11.064;2023-03-01T05:52:52;25.67;;;17.03;;
18322;SDS011;9287;49.456;11.064;2023-03-01T05:55:25;25.20;;;16.77;;
18322;SDS011;9287;49.456;11.064;2023-03-01T05:57:55;27.77;;;17.60;;
18322;SDS011;9287;49.456;11.064;2023-03-01T06:00:25;28.20;;;18.10;;
18322;SDS011;9287;49.456;11.064;2023-03-01T06:02:53;24.73;;;16.50;;
18322;SDS011;9287;49.456;11.064;2023-03-01T06:05:22;23.33;;;16.90;;
18322;SDS011;9287;49.456;11.064;2023-03-01T06:07:51;25.43;;;18.13;;
18322;SDS011;9287;49.456;11.064;2023-03-01T06:10:19;26.17;;;17.87;;
18322;SDS011;9287;49.456;11.064;2023-03-01T06:12:48;23.43;;;17.47;;
18322;SDS011;9287;49.456;11.064;2023-03-01T06:15:18;30.23;;;19.40;;
18322;SDS011;9287;49.456;11.064;2023-03-01T06:17:46;22.90;;;18.07;;
18322;SDS011;9287;49.456;11.064;2023-03-01T06:20:15;24.77;;;17.97;;
18322;SDS011;9287;49.456;11.064;2023-03-01T06:22:45;23.63;;;17.80;;
18322;SDS011;9287;49.456;11.064;2023-03-01T06:25:14;25.47;;;17.53;;
18322;SDS011;9287;49.456;11.064;2023-03-01T06:27:44;25.07;;;17.57;;
18322;SDS011;9287;49.456;11.064;2023-03-01T06:30:13;24.07;;;17.57;;
18322;SDS011;9287;49.456;11.064;2023-03-01T06:32:43;24.00;;;16.87;;
18322;SDS011;9287;49.456;11.064;2023-03-01T06:35:12;23.60;;;16.53;;
18322;SDS011;9287;49.456;11.064;2023-03-01T06:37:43;22.77;;;16.97;;
18322;SDS011;9287;49.456;11.064;2023-03-01T06:40:12;24.83;;;17.27;;
18322;SDS011;9287;49.456;11.064;2023-03-01T06:42:43;22.80;;;15.83;;
18322;SDS011;9287;49.456;11.064;2023-03-01T06:45:15;22.53;;;16.77;;
18322;SDS011;9287;49.456;11.064;2023-03-01T06:47:45;24.40;;;17.07;;
18322;SDS011;9287;49.456;11.064;2023-03-01T06:50:13;19.97;;;15.43;;
18322;SDS011;9287;49.456;11.064;2023-03-01T06:52:42;22.87;;;15.57;;
18322;SDS011;9287;49.456;11.064;2023-03-01T06:55:11;23.40;;;16.33;;
18322;SDS011;9287;49.456;11.064;2023-03-01T06:57:39;20.90;;;15.23;;
18322;SDS011;9287;49.456;11.064;2023-03-01T07:00:08;22.47;;;16.37;;
18322;SDS011;9287;49.456;11.064;2023-03-01T07:02:36;21.67;;;16.77;;
18322;SDS011;9287;49.456;11.064;2023-03-01T07:05:06;23.40;;;16.40;;
18322;SDS011;9287;49.456;11.064;2023-03-01T07:07:34;22.70;;;16.20;;
18322;SDS011;9287;49.456;11.064;2023-03-01T07:10:02;22.17;;;16.80;;
18322;SDS011;9287;49.456;11.064;2023-03-01T07:12:30;23.00;;;16.37;;
18322;SDS011;9287;49.456;11.064;2023-03-01T07:14:58;22.33;;;16.80;;
18322;SDS011;9287;49.456;11.064;2023-03-01T07:17:25;25.50;;;16.93;;
18322;SDS011;9287;49.456;11.064;2023-03-01T07:19:53;24.57;;;17.00;;
18322;SDS011;9287;49.456;11.064;2023-03-01T07:22:22;21.87;;;16.40;;
18322;SDS011;9287;49.456;11.064;2023-03-01T07:24:50;25.90;;;16.87;;
18322;SDS011;9287;49.456;11.064;2023-03-01T07:27:18;27.23;;;17.07;;
18322;SDS011;9287;49.456;11.064;2023-03-01T07:29:45;21.10;;;16.23;;
18322;SDS011;9287;49.456;11.064;2023-03-01T07:32:13;25.37;;;17.60;;
18322;SDS011;9287;49.456;11.064;2023-03-01T07:34:41;23.33;;;17.50;;
18322;SDS011;9287;49.456;11.064;2023-03-01T07:37:09;24.83;;;18.43;;
18322;SDS011;9287;49.456;11.064;2023-03-01T07:39:38;24.73;;;17.10;;
18322;SDS011;9287;49.456;11.064;2023-03-01T07:42:05;22.50;;;17.00;;
18322;SDS011;9287;49.456;11.064;2023-03-01T07:44:33;24.33;;;17.10;;
18322;SDS011;9287;49.456;11.064;2023-03-01T07:47:02;24.20;;;16.53;;
18322;SDS011;9287;49.456;11.064;2023-03-01T07:49:32;24.13;;;17.87;;
18322;SDS011;9287;49.456;11.064;2023-03-01T07:51:59;23.83;;;16.83;;
18322;SDS011;9287;49.456;11.064;2023-03-01T07:54:27;24.93;;;17.00;;
18322;SDS011;9287;49.456;11.064;2023-03-01T07:56:57;23.20;;;16.67;;
18322;SDS011;9287;49.456;11.064;2023-03-01T07:59:25;27.93;;;17.03;;
18322;SDS011;9287;49.456;11.064;2023-03-01T08:01:55;24.10;;;16.80;;
18322;SDS011;9287;49.456;11.064;2023-03-01T08:04:23;24.87;;;16.90;;
18322;SDS011;9287;49.456;11.064;2023-03-01T08:06:53;24.43;;;16.07;;
18322;SDS011;9287;49.456;11.064;2023-03-01T08:09:21;23.10;;;15.80;;
18322;SDS011;9287;49.456;11.064;2023-03-01T08:11:48;23.50;;;16.43;;
18322;SDS011;9287;49.456;11.064;2023-03-01T08:14:18;23.47;;;16.27;;
18322;SDS011;9287;49.456;11.064;2023-03-01T08:16:48;19.73;;;14.43;;
18322;SDS011;9287;49.456;11.064;2023-03-01T08:19:16;22.43;;;15.30;;
18322;SDS011;9287;49.456;11.064;2023-03-01T08:21:44;22.23;;;15.57;;
18322;SDS011;9287;49.456;11.064;2023-03-01T08:24:12;24.30;;;15.40;;
18322;SDS011;9287;49.456;11.064;2023-03-01T08:26:40;18.77;;;13.83;;
18322;SDS011;9287;49.456;11.064;2023-03-01T08:29:07;22.43;;;13.73;;
18322;SDS011;9287;49.456;11.064;2023-03-01T08:31:38;18.97;;;14.03;;
18322;SDS011;9287;49.456;11.064;2023-03-01T08:34:07;19.90;;;14.50;;
18322;SDS011;9287;49.456;11.064;2023-03-01T08:36:38;22.03;;;14.37;;
18322;SDS011;9287;49.456;11.064;2023-03-01T08:39:09;19.70;;;13.80;;
18322;SDS011;9287;49.456;11.064;2023-03-01T08:41:38;19.37;;;14.37;;
18322;SDS011;9287;49.456;11.064;2023-03-01T08:44:06;20.20;;;14.07;;
18322;SDS011;9287;49.456;11.064;2023-03-01T08:46:35;20.73;;;14.57;;
18322;SDS011;9287;49.456;11.064;2023-03-01T08:49:06;21.47;;;15.50;;
18322;SDS011;9287;49.456;11.064;2023-03-01T08:51:35;23.20;;;15.63;;
18322;SDS011;9287;49.456;11.064;2023-03-01T08:54:03;20.90;;;15.07;;
18322;SDS011;9287;49.456;11.064;2023-03-01T08:56:32;23.43;;;15.87;;
18322;SDS011;9287;49.456;11.064;2023-03-01T08:59:00;21.43;;;16.00;;
18322;SDS011;9287;49.456;11.064;2023-03-01T09:01:28;21.30;;;15.43;;
18322;SDS011;9287;49.456;11.064;2023-03-01T09:03:58;23.20;;;15.57;;
18322;SDS011;9287;49.456;11.064;2023-03-01T09:06:26;19.57;;;14.43;;
18322;SDS011;9287;49.456;11.064;2023-03-01T09:08:54;22.27;;;14.83;;
18322;SDS011;9287;49.456;11.064;2023-03-01T09:11:21;21.87;;;15.80;;
18322;SDS011;9287;49.456;11.064;2023-03-01T09:13:49;20.30;;;13.93;;
18322;SDS011;9287;49.456;11.064;2023-03-01T09:16:17;20.03;;;14.23;;
18322;SDS011;9287;49.456;11.064;2023-03-01T09:18:48;24.17;;;15.53;;
18322;SDS011;9287;49.456;11.064;2023-03-01T09:21:19;20.87;;;14.03;;
18322;SDS011;9287;49.456;11.064;2023-03-01T09:24:04;19.17;;;14.63;;
18322;SDS011;9287;49.456;11.064;2023-03-01T09:26:33;17.53;;;14.13;;
18322;SDS011;9287;49.456;11.064;2023-03-01T09:29:01;19.67;;;14.13;;
18322;SDS011;9287;49.456;11.064;2023-03-01T09:31:29;20.00;;;13.80;;
18322;SDS011;9287;49.456;11.064;2023-03-01T09:33:57;19.50;;;14.30;;
18322;SDS011;9287;49.456;11.064;2023-03-01T09:36:26;18.83;;;14.37;;
18322;SDS011;9287;49.456;11.064;2023-03-01T09:38:55;22.63;;;15.30;;
18322;SDS011;9287;49.456;11.064;2023-03-01T09:41:36;18.53;;;13.70;;
18322;SDS011;9287;49.456;11.064;2023-03-01T09:44:13;18.60;;;13.43;;
18322;SDS011;9287;49.456;11.064;2023-03-01T09:46:48;19.03;;;14.53;;
18322;SDS011;9287;49.456;11.064;2023-03-01T09:49:18;19.70;;;13.63;;
18322;SDS011;9287;49.456;11.064;2023-03-01T09:51:53;18.40;;;13.87;;
18322;SDS011;9287;49.456;11.064;2023-03-01T09:54:24;21.50;;;14.20;;
18322;SDS011;9287;49.456;11.064;2023-03-01T09:56:54;21.83;;;14.50;;
18322;SDS011;9287;49.456;11.064;2023-03-01T09:59:30;18.27;;;13.30;;
18322;SDS011;9287;49.456;11.064;2023-03-01T10:02:05;17.83;;;13.77;;
18322;SDS011;9287;49.456;11.064;2023-03-01T10:04:51;19.30;;;13.73;;
18322;SDS011;9287;49.456;11.064;2023-03-01T10:07:27;17.97;;;13.50;;
18322;SDS011;9287;49.456;11.064;2023-03-01T10:09:59;20.63;;;14.50;;
18322;SDS011;9287;49.456;11.064;2023-03-01T10:12:32;16.60;;;13.53;;
18322;SDS011;9287;49.456;11.064;2023-03-01T10:15:04;17.57;;;12.77;;
18322;SDS011;9287;49.456;11.064;2023-03-01T10:17:39;19.07;;;14.10;;
18322;SDS011;9287;49.456;11.064;2023-03-01T10:20:18;17.83;;;12.80;;
18322;SDS011;9287;49.456;11.064;2023-03-01T10:22:49;18.77;;;13.33;;
18322;SDS011;9287;49.456;11.064;2023-03-01T10:25:22;25.53;;;13.30;;
18322;SDS011;9287;49.456;11.064;2023-03-01T10:28:00;18.83;;;13.07;;
18322;SDS011;9287;49.456;11.064;2023-03-01T10:30:34;19.90;;;14.40;;
18322;SDS011;9287;49.456;11.064;2023-03-01T10:33:07;18.93;;;13.97;;
18322;SDS011;9287;49.456;11.064;2023-03-01T10:35:43;17.83;;;13.37;;
18322;SDS011;9287;49.456;11.064;2023-03-01T10:38:13;19.27;;;13.50;;
18322;SDS011;9287;49.456;11.064;2023-03-01T10:40:53;17.80;;;13.60;;
18322;SDS011;9287;49.456;11.064;2023-03-01T10:43:23;22.53;;;15.43;;
18322;SDS011;9287;49.456;11.064;2023-03-01T10:45:52;18.90;;;14.53;;
18322;SDS011;9287;49.456;11.064;2023-03-01T10:48:20;18.43;;;13.53;;
18322;SDS011;9287;49.456;11.064;2023-03-01T10:51:04;22.37;;;13.30;;
18322;SDS011;9287;49.456;11.064;2023-03-01T10:53:35;21.43;;;14.43;;
18322;SDS011;9287;49.456;11.064;2023-03-01T10:56:05;18.90;;;14.87;;
18322;SDS011;9287;49.456;11.064;2023-03-01T10:58:35;18.97;;;14.50;;
18322;SDS011;9287;49.456;11.064;2023-03-01T11:01:04;18.97;;;13.60;;
18322;SDS011;9287;49.456;11.064;2023-03-01T11:04:03;20.00;;;14.07;;
18322;SDS011;9287;49.456;11.064;2023-03-01T11:06:38;18.23;;;13.87;;
18322;SDS011;9287;49.456;11.064;2023-03-01T11:09:15;18.40;;;13.37;;
18322;SDS011;9287;49.456;11.064;2023-03-01T11:11:45;20.03;;;12.90;;
18322;SDS011;9287;49.456;11.064;2023-03-01T11:14:15;18.50;;;12.97;;
18322;SDS011;9287;49.456;11.064;2023-03-01T11:16:59;17.57;;;12.73;;
18322;SDS011;9287;49.456;11.064;2023-03-01T11:19:29;18.10;;;13.43;;
18322;SDS011;9287;49.456;11.064;2023-03-01T11:21:59;17.97;;;13.30;;
18322;SDS011;9287;49.456;11.064;2023-03-01T11:24:33;16.47;;;12.43;;
18322;SDS011;9287;49.456;11.064;2023-03-01T11:27:12;16.40;;;12.60;;
18322;SDS011;9287;49.456;11.064;2023-03-01T11:29:45;15.83;;;12.47;;
18322;SDS011;9287;49.456;11.064;2023-03-01T11:32:17;13.90;;;12.03;;
18322;SDS011;9287;49.456;11.064;2023-03-01T11:34:47;15.90;;;12.70;;
18322;SDS011;9287;49.456;11.064;2023-03-01T11:37:21;18.60;;;12.90;;
18322;SDS011;9287;49.456;11.064;2023-03-01T11:40:00;15.87;;;11.93;;
18322;SDS011;9287;49.456;11.064;2023-03-01T11:42:42;17.33;;;11.93;;
18322;SDS011;9287;49.456;11.064;2023-03-01T11:45:19;14.47;;;11.27;;
18322;SDS011;9287;49.456;11.064;2023-03-01T11:47:54;17.10;;;11.93;;
18322;SDS011;9287;49.456;11.064;2023-03-01T11:50:31;15.37;;;11.83;;
18322;SDS011;9287;49.456;11.064;2023-03-01T11:53:17;16.00;;;11.23;;
18322;SDS011;9287;49.456;11.064;2023-03-01T11:55:59;15.90;;;11.47;;
18322;SDS011;9287;49.456;11.064;2023-03-01T11:58:44;16.57;;;11.83;;
18322;SDS011;9287;49.456;11.064;2023-03-01T12:01:36;14.73;;;11.50;;
18322;SDS011;9287;49.456;11.064;2023-03-01T12:04:20;14.17;;;11.90;;
18322;SDS011;9287;49.456;11.064;2023-03-01T12:07:04;15.20;;;12.43;;
18322;SDS011;9287;49.456;11.064;2023-03-01T12:09:47;13.13;;;11.23;;
18322;SDS011;9287;49.456;11.064;2023-03-01T12:12:29;14.40;;;10.53;;
18322;SDS011;9287;49.456;11.064;2023-03-01T12:18:37;13.07;;;10.73;;
18322;SDS011;9287;49.456;11.064;2023-03-01T12:21:18;11.57;;;10.33;;
18322;SDS011;9287;49.456;11.064;2023-03-01T12:30:16;12.87;;;10.83;;
18322;SDS011;9287;49.456;11.064;2023-03-01T12:33:00;13.37;;;11.67;;
18322;SDS011;9287;49.456;11.064;2023-03-01T12:35:40;13.00;;;11.20;;
18322;SDS011;9287;49.456;11.064;2023-03-01T12:38:22;13.27;;;10.67;;
18322;SDS011;9287;49.456;11.064;2023-03-01T12:41:05;13.10;;;10.90;;
18322;SDS011;9287;49.456;11.064;2023-03-01T12:43:50;14.33;;;10.60;;
18322;SDS011;9287;49.456;11.064;2023-03-01T12:46:41;13.33;;;10.47;;
18322;SDS011;9287;49.456;11.064;2023-03-01T12:49:20;14.47;;;10.77;;
18322;SDS011;9287;49.456;11.064;2023-03-01T12:51:54;14.93;;;10.97;;
18322;SDS011;9287;49.456;11.064;2023-03-01T12:54:27;13.60;;;11.10;;
18322;SDS011;9287;49.456;11.064;2023-03-01T12:56:59;15.53;;;11.23;;
18322;SDS011;9287;49.456;11.064;2023-03-01T12:59:36;13.60;;;11.00;;
18322;SDS011;9287;49.456;11.064;2023-03-01T13:02:09;13.30;;;11.27;;
18322;SDS011;9287;49.456;11.064;2023-03-01T13:04:49;16.80;;;10.83;;
18322;SDS011;9287;49.456;11.064;2023-03-01T13:07:28;12.53;;;10.63;;
18322;SDS011;9287;49.456;11.064;2023-03-01T13:10:06;16.43;;;11.10;;
18322;SDS011;9287;49.456;11.064;2023-03-01T13:12:47;12.20;;;9.90;;
18322;SDS011;9287;49.456;11.064;2023-03-01T13:15:29;10.97;;;9.70;;
18322;SDS011;9287;49.456;11.064;2023-03-01T13:17:59;15.43;;;10.70;;
18322;SDS011;9287;49.456;11.064;2023-03-01T13:20:31;15.63;;;10.30;;
18322;SDS011;9287;49.456;11.064;2023-03-01T13:23:02;15.33;;;10.43;;
18322;SDS011;9287;49.456;11.064;2023-03-01T13:25:33;14.40;;;10.77;;
18322;SDS011;9287;49.456;11.064;2023-03-01T13:31:10;14.27;;;10.50;;
18322;SDS011;9287;49.456;11.064;2023-03-01T13:33:58;13.23;;;9.10;;
18322;SDS011;9287;49.456;11.064;2023-03-01T13:39:27;16.87;;;9.97;;
18322;SDS011;9287;49.456;11.064;2023-03-01T13:41:59;18.37;;;10.03;;
18322;SDS011;9287;49.456;11.064;2023-03-01T13:44:29;15.03;;;10.50;;
18322;SDS011;9287;49.456;11.064;2023-03-01T13:47:03;12.00;;;9.90;;
18322;SDS011;9287;49.456;11.064;2023-03-01T13:49:42;12.30;;;9.97;;
18322;SDS011;9287;49.456;11.064;2023-03-01T13:52:22;12.27;;;9.43;;
18322;SDS011;9287;49.456;11.064;2023-03-01T13:55:03;12.10;;;8.70;;
18322;SDS011;9287;49.456;11.064;2023-03-01T13:57:34;13.90;;;9.70;;
18322;SDS011;9287;49.456;11.064;2023-03-01T14:00:05;13.33;;;10.03;;
18322;SDS011;9287;49.456;11.064;2023-03-01T14:02:38;12.73;;;9.83;;
18322;SDS011;9287;49.456;11.064;2023-03-01T14:05:08;14.70;;;10.53;;
18322;SDS011;9287;49.456;11.064;2023-03-01T14:07:37;11.47;;;9.50;;
18322;SDS011;9287;49.456;11.064;2023-03-01T14:10:07;13.63;;;10.17;;
18322;SDS011;9287;49.456;11.064;2023-03-01T14:12:40;16.80;;;11.40;;
18322;SDS011;9287;49.456;11.064;2023-03-01T14:15:15;13.17;;;10.27;;
18322;SDS011;9287;49.456;11.064;2023-03-01T14:17:53;12.03;;;9.50;;
18322;SDS011;9287;49.456;11.064;2023-03-01T14:20:26;14.00;;;10.93;;
18322;SDS011;9287;49.456;11.064;2023-03-01T14:22:56;16.47;;;10.50;;
18322;SDS011;9287;49.456;11.064;2023-03-01T14:25:26;11.87;;;10.00;;
18322;SDS011;9287;49.456;11.064;2023-03-01T14:27:58;15.50;;;10.87;;
18322;SDS011;9287;49.456;11.064;2023-03-01T14:30:31;16.83;;;11.47;;
18322;SDS011;9287;49.456;11.064;2023-03-01T14:33:04;15.47;;;10.77;;
18322;SDS011;9287;49.456;11.064;2023-03-01T14:35:34;17.57;;;10.83;;
18322;SDS011;9287;49.456;11.064;2023-03-01T14:38:03;13.47;;;10.93;;
18322;SDS011;9287;49.456;11.064;2023-03-01T14:40:32;17.33;;;12.13;;
18322;SDS011;9287;49.456;11.064;2023-03-01T14:43:02;13.00;;;10.93;;
18322;SDS011;9287;49.456;11.064;2023-03-01T14:45:36;14.53;;;10.53;;
18322;SDS011;9287;49.456;11.064;2023-03-01T14:48:06;14.70;;;11.33;;
18322;SDS011;9287;49.456;11.064;2023-03-01T14:50:34;14.43;;;11.13;;
18322;SDS011;9287;49.456;11.064;2023-03-01T14:53:07;15.77;;;11.30;;
18322;SDS011;9287;49.456;11.064;2023-03-01T14:55:45;14.47;;;11.07;;
18322;SDS011;9287;49.456;11.064;2023-03-01T14:58:16;14.87;;;11.23;;
18322;SDS011;9287;49.456;11.064;2023-03-01T15:00:48;15.70;;;11.20;;
18322;SDS011;9287;49.456;11.064;2023-03-01T15:03:23;13.77;;;10.67;;
18322;SDS011;9287;49.456;11.064;2023-03-01T15:05:53;12.43;;;10.43;;